createdAt,value
2023-01-29T00:00:41.024Z,100740.31
2023-01-29T00:03:43.834Z,100741.69
2023-01-29T00:06:46.395Z,100736.34
2023-01-29T00:09:49.224Z,100733.97
2023-01-29T00:12:52.740Z,100737.69
2023-01-29T00:15:59.313Z,100742.16
2023-01-29T00:19:02.645Z,100745.56
2023-01-29T00:22:05.446Z,100748.19
2023-01-29T00:25:08.887Z,100741.41
2023-01-29T00:28:12.349Z,100749.19
2023-01-29T00:31:17.858Z,100750.88
2023-01-29T00:34:21.513Z,100754.59
2023-01-29T00:37:24.290Z,100754.28
2023-01-29T00:40:27.215Z,100758.31
2023-01-29T00:43:48.545Z,100759.44
2023-01-29T00:46:51.454Z,100763.72
2023-01-29T00:49:54.252Z,100765.97
2023-01-29T00:52:57.633Z,100760.81
2023-01-29T00:56:00.228Z,100768.50
2023-01-29T00:59:04.287Z,100768.84
2023-01-29T01:02:26.143Z,100765.47
2023-01-29T01:05:29.415Z,100770.34
2023-01-29T01:08:51.904Z,100767.22
2023-01-29T01:11:55.867Z,100763.09
2023-01-29T01:14:58.460Z,100769.59
2023-01-29T01:18:02.390Z,100762.91
2023-01-29T01:21:06.506Z,100759.59
2023-01-29T01:24:09.441Z,100755.84
2023-01-29T01:27:12.696Z,100760.41
2023-01-29T01:30:16.726Z,100765.47
2023-01-29T01:33:20.299Z,100774.00
2023-01-29T01:36:23.280Z,100781.25
2023-01-29T01:39:26.276Z,100784.25
2023-01-29T01:42:32.541Z,100789.41
2023-01-29T01:45:36.949Z,100788.03
2023-01-29T01:48:40.123Z,100787.34
2023-01-29T01:51:46.489Z,100795.31
2023-01-29T01:54:49.844Z,100786.69
2023-01-29T01:57:55.965Z,100794.41
2023-01-29T02:00:59.084Z,100788.53
2023-01-29T02:04:25.185Z,100782.53
2023-01-29T02:07:46.414Z,100784.12
2023-01-29T02:10:49.912Z,100779.22
2023-01-29T02:13:53.748Z,100787.75
2023-01-29T02:17:01.677Z,100793.88
2023-01-29T02:20:24.540Z,100798.97
2023-01-29T02:23:40.836Z,100800.53
2023-01-29T02:27:04.786Z,100804.34
2023-01-29T02:30:37.579Z,100802.66
2023-01-29T02:33:55.493Z,100811.44
2023-01-29T02:37:09.995Z,100818.44
2023-01-29T02:40:34.601Z,100810.59
2023-01-29T02:43:50.161Z,100811.13
2023-01-29T02:47:09.732Z,100817.66
2023-01-29T02:50:19.561Z,100816.66
2023-01-29T02:53:32.749Z,100826.28
2023-01-29T02:56:47.417Z,100829.50
2023-01-29T03:00:10.426Z,100833.25
2023-01-29T03:03:20.631Z,100835.31
2023-01-29T03:06:31.977Z,100836.25
2023-01-29T03:09:37.763Z,100834.53
2023-01-29T03:12:44.682Z,100833.06
2023-01-29T03:15:54.994Z,100841.31
2023-01-29T03:19:08.705Z,100842.44
2023-01-29T03:22:11.698Z,100836.44
2023-01-29T03:25:34.279Z,100835.66
2023-01-29T03:28:56.910Z,100845.81
2023-01-29T03:32:09.290Z,100841.94
2023-01-29T03:35:14.535Z,100846.38
2023-01-29T03:38:17.940Z,100845.81
2023-01-29T03:41:33.573Z,100841.56
2023-01-29T03:44:49.049Z,100855.47
2023-01-29T03:48:02.062Z,100856.84
2023-01-29T03:51:53.218Z,100860.63
2023-01-29T03:55:07.006Z,100858.19
2023-01-29T03:58:12.936Z,100853.81
2023-01-29T04:01:19.703Z,100850.28
2023-01-29T04:04:28.932Z,100849.28
2023-01-29T04:07:33.520Z,100846.50
2023-01-29T04:10:39.219Z,100849.53
2023-01-29T04:13:42.181Z,100850.03
2023-01-29T04:16:48.976Z,100850.87
2023-01-29T04:19:52.072Z,100851.00
2023-01-29T04:22:55.019Z,100855.81
2023-01-29T04:26:21.719Z,100848.81
2023-01-29T04:29:33.725Z,100856.38
2023-01-29T04:32:58.729Z,100846.91
2023-01-29T04:36:23.196Z,100844.22
2023-01-29T04:39:38.197Z,100844.88
2023-01-29T04:42:43.998Z,100850.03
2023-01-29T04:46:13.207Z,100853.63
2023-01-29T04:49:48.605Z,100856.38
2023-01-29T04:53:14.085Z,100858.59
2023-01-29T04:56:30.310Z,100854.06
2023-01-29T04:59:39.250Z,100865.16
2023-01-29T05:02:43.662Z,100859.91
2023-01-29T05:05:48.345Z,100858.28
2023-01-29T05:08:51.802Z,100851.00
2023-01-29T05:11:55.214Z,100853.91
2023-01-29T05:15:01.448Z,100866.06
2023-01-29T05:18:08.874Z,100858.16
2023-01-29T05:21:11.891Z,100857.00
2023-01-29T05:24:23.243Z,100858.06
2023-01-29T05:27:53.159Z,100853.69
2023-01-29T05:30:57.189Z,100852.47
2023-01-29T05:34:00.159Z,100845.47
2023-01-29T05:37:02.886Z,100847.72
2023-01-29T05:40:08.852Z,100850.25
2023-01-29T05:43:29.664Z,100844.75
2023-01-29T05:46:32.454Z,100847.91
2023-01-29T05:49:36.363Z,100845.84
2023-01-29T05:52:40.807Z,100841.00
2023-01-29T05:55:49.250Z,100845.44
2023-01-29T05:58:52.381Z,100855.00
2023-01-29T06:01:54.939Z,100851.53
2023-01-29T06:04:57.879Z,100856.75
2023-01-29T06:08:00.395Z,100853.78
2023-01-29T06:11:03.520Z,100870.87
2023-01-29T06:14:06.528Z,100862.94
2023-01-29T06:17:09.337Z,100875.03
2023-01-29T06:20:12.609Z,100870.72
2023-01-29T06:23:15.610Z,100876.66
2023-01-29T06:26:18.239Z,100887.97
2023-01-29T06:29:21.186Z,100894.19
2023-01-29T06:32:24.063Z,100894.06
2023-01-29T06:35:27.224Z,100900.44
2023-01-29T06:38:31.005Z,100915.59
2023-01-29T06:41:34.672Z,100920.47
2023-01-29T06:44:37.123Z,100919.97
2023-01-29T06:47:40.052Z,100919.84
2023-01-29T06:50:43.146Z,100919.47
2023-01-29T06:53:46.715Z,100927.22
2023-01-29T06:56:49.441Z,100927.12
2023-01-29T06:59:52.594Z,100924.13
2023-01-29T07:02:55.211Z,100919.50
2023-01-29T07:05:58.241Z,100919.34
2023-01-29T07:09:01.027Z,100926.81
2023-01-29T07:12:04.804Z,100918.25
2023-01-29T07:15:07.940Z,100913.06
2023-01-29T07:18:13.558Z,100917.44
2023-01-29T07:21:16.595Z,100913.06
2023-01-29T07:24:19.608Z,100908.50
2023-01-29T07:27:22.128Z,100900.50
2023-01-29T07:30:25.282Z,100896.56
2023-01-29T07:33:27.968Z,100899.94
2023-01-29T07:36:31.035Z,100899.72
2023-01-29T07:39:33.587Z,100894.91
2023-01-29T07:42:40.066Z,100899.28
2023-01-29T07:45:42.706Z,100894.78
2023-01-29T07:48:45.603Z,100882.69
2023-01-29T07:51:48.294Z,100889.31
2023-01-29T07:54:51.143Z,100881.00
2023-01-29T07:57:57.554Z,100880.06
2023-01-29T08:01:00.586Z,100886.94
2023-01-29T08:04:03.562Z,100893.16
2023-01-29T08:07:06.149Z,100884.06
2023-01-29T08:10:09.897Z,100887.38
2023-01-29T08:13:18.743Z,100892.62
2023-01-29T08:16:21.609Z,100883.22
2023-01-29T08:19:24.379Z,100884.78
2023-01-29T08:22:27.480Z,100890.34
2023-01-29T08:25:30.606Z,100894.81
2023-01-29T08:28:33.580Z,100894.72
2023-01-29T08:31:37.131Z,100899.22
2023-01-29T08:34:40.062Z,100906.25
2023-01-29T08:37:42.531Z,100907.56
2023-01-29T08:40:45.551Z,100906.41
2023-01-29T08:43:48.072Z,100920.22
2023-01-29T08:46:53.698Z,100916.66
2023-01-29T08:49:56.445Z,100924.84
2023-01-29T08:53:00.562Z,100926.78
2023-01-29T08:56:03.292Z,100927.28
2023-01-29T08:59:06.337Z,100938.50
2023-01-29T09:02:10.859Z,100935.53
2023-01-29T09:05:13.855Z,100944.25
2023-01-29T09:08:16.581Z,100947.88
2023-01-29T09:11:19.952Z,100954.22
2023-01-29T09:14:22.760Z,100948.72
2023-01-29T09:17:25.794Z,100949.72
2023-01-29T09:20:28.600Z,100942.16
2023-01-29T09:23:31.818Z,100947.34
2023-01-29T09:26:34.767Z,100945.72
2023-01-29T09:29:38.221Z,100951.13
2023-01-29T09:32:56.197Z,100951.69
2023-01-29T09:36:03.832Z,100953.00
2023-01-29T09:39:06.443Z,100940.34
2023-01-29T09:42:16.596Z,100939.66
2023-01-29T09:45:24.858Z,100954.09
2023-01-29T09:48:30.353Z,100950.72
2023-01-29T09:51:43.799Z,100966.63
2023-01-29T09:54:56.117Z,100965.84
2023-01-29T09:58:01.209Z,100951.22
2023-01-29T10:01:07.846Z,100952.00
2023-01-29T10:04:23.225Z,100950.69
2023-01-29T10:07:37.848Z,100954.41
2023-01-29T10:11:01.079Z,100964.56
2023-01-29T10:14:41.436Z,100966.88
2023-01-29T10:17:55.309Z,100971.09
2023-01-29T10:21:04.689Z,100966.00
2023-01-29T10:24:17.233Z,100963.00
2023-01-29T10:27:20.118Z,100953.91
2023-01-29T10:30:36.966Z,100950.28
2023-01-29T10:34:01.426Z,100953.13
2023-01-29T10:37:36.974Z,100943.19
2023-01-29T10:40:47.100Z,100950.84
2023-01-29T10:44:08.916Z,100946.66
2023-01-29T10:47:23.623Z,100950.75
2023-01-29T10:50:50.573Z,100943.50
2023-01-29T10:54:16.235Z,100943.28
2023-01-29T10:57:43.997Z,100944.12
2023-01-29T11:00:46.835Z,100938.66
2023-01-29T11:04:02.335Z,100923.38
2023-01-29T11:07:04.833Z,100924.31
2023-01-29T11:10:11.633Z,100919.53
2023-01-29T11:13:15.583Z,100918.63
2023-01-29T11:16:18.435Z,100921.84
2023-01-29T11:19:40.536Z,100915.91
2023-01-29T11:22:53.957Z,100912.28
2023-01-29T11:25:57.897Z,100911.22
2023-01-29T11:29:00.968Z,100896.28
2023-01-29T11:32:25.588Z,100890.72
2023-01-29T11:35:30.267Z,100891.56
2023-01-29T11:38:33.048Z,100882.09
2023-01-29T11:41:49.391Z,100875.91
2023-01-29T11:44:51.981Z,100866.72
2023-01-29T11:47:56.544Z,100871.44
2023-01-29T11:51:05.537Z,100860.59
2023-01-29T11:54:15.319Z,100847.88
2023-01-29T11:57:36.483Z,100837.22
2023-01-29T12:00:40.527Z,100841.09
2023-01-29T12:03:48.507Z,100840.41
2023-01-29T12:06:53.850Z,100849.94
2023-01-29T12:09:58.730Z,100841.69
2023-01-29T12:13:11.980Z,100840.94
2023-01-29T12:16:39.392Z,100845.16
2023-01-29T12:19:49.169Z,100846.84
2023-01-29T12:22:58.884Z,100843.41
2023-01-29T12:26:23.153Z,100839.56
2023-01-29T12:29:50.001Z,100834.00
2023-01-29T12:33:24.756Z,100842.03
2023-01-29T12:37:10.995Z,100840.66
2023-01-29T12:40:16.390Z,100835.53
2023-01-29T12:43:29.023Z,100836.69
2023-01-29T12:46:39.458Z,100834.00
2023-01-29T12:49:43.013Z,100844.03
2023-01-29T12:52:53.162Z,100835.69
2023-01-29T12:56:00.295Z,100836.47
2023-01-29T12:59:10.328Z,100830.84
2023-01-29T13:02:32.027Z,100832.22
2023-01-29T13:06:04.162Z,100818.88
2023-01-29T13:09:12.006Z,100816.81
2023-01-29T13:12:17.514Z,100805.56
2023-01-29T13:15:30.506Z,100802.22
2023-01-29T13:18:44.909Z,100799.84
2023-01-29T13:21:48.312Z,100790.06
2023-01-29T13:25:03.657Z,100782.03
2023-01-29T13:28:17.274Z,100776.19
2023-01-29T13:31:27.918Z,100775.16
2023-01-29T13:34:36.893Z,100761.41
2023-01-29T13:37:47.585Z,100766.56
2023-01-29T13:40:50.981Z,100773.28
2023-01-29T13:43:53.792Z,100776.84
2023-01-29T13:47:02.383Z,100771.12
2023-01-29T13:50:11.207Z,100776.69
2023-01-29T13:53:23.623Z,100790.31
2023-01-29T13:56:35.457Z,100783.44
2023-01-29T13:59:53.612Z,100785.75
2023-01-29T14:03:08.531Z,100780.22
2023-01-29T14:06:11.639Z,100758.87
2023-01-29T14:09:39.369Z,100767.34
2023-01-29T14:12:43.613Z,100771.12
2023-01-29T14:16:06.678Z,100769.44
2023-01-29T14:19:18.212Z,100790.09
2023-01-29T14:22:26.709Z,100788.97
2023-01-29T14:25:38.012Z,100789.41
2023-01-29T14:28:42.868Z,100795.66
2023-01-29T14:32:09.595Z,100784.88
2023-01-29T14:35:27.428Z,100791.62
2023-01-29T14:38:33.139Z,100790.25
2023-01-29T14:41:36.349Z,100797.72
2023-01-29T14:44:45.742Z,100798.94
2023-01-29T14:47:48.459Z,100790.56
2023-01-29T14:50:52.433Z,100791.50
2023-01-29T14:54:04.241Z,100798.97
2023-01-29T14:57:11.743Z,100794.69
2023-01-29T15:00:22.924Z,100791.72
2023-01-29T15:03:44.375Z,100792.25
2023-01-29T15:06:56.253Z,100802.53
2023-01-29T15:10:22.687Z,100793.59
2023-01-29T15:13:50.860Z,100797.13
2023-01-29T15:17:17.169Z,100791.72
2023-01-29T15:20:34.704Z,100793.06
2023-01-29T15:23:37.850Z,100788.97
2023-01-29T15:26:42.836Z,100787.44
2023-01-29T15:29:56.385Z,100773.53
2023-01-29T15:32:59.720Z,100784.28
2023-01-29T15:36:07.812Z,100776.75
2023-01-29T15:39:13.562Z,100789.28
2023-01-29T15:42:21.748Z,100786.41
2023-01-29T15:45:28.107Z,100784.03
2023-01-29T15:48:41.027Z,100797.66
2023-01-29T15:51:43.783Z,100790.94
2023-01-29T15:54:46.868Z,100791.53
2023-01-29T15:57:50.006Z,100798.72
2023-01-29T16:00:55.712Z,100790.94
2023-01-29T16:04:02.521Z,100799.69
2023-01-29T16:07:05.330Z,100798.41
2023-01-29T16:10:16.348Z,100798.53
2023-01-29T16:13:27.641Z,100803.37
2023-01-29T16:16:30.701Z,100796.37
2023-01-29T16:19:33.715Z,100789.22
2023-01-29T16:22:37.528Z,100799.59
2023-01-29T16:25:40.441Z,100808.25
2023-01-29T16:28:44.584Z,100808.12
2023-01-29T16:31:49.168Z,100801.91
2023-01-29T16:34:57.180Z,100809.13
2023-01-29T16:38:03.935Z,100815.59
2023-01-29T16:41:26.610Z,100824.22
2023-01-29T16:44:35.635Z,100821.66
2023-01-29T16:47:41.520Z,100831.19
2023-01-29T16:50:54.609Z,100824.94
2023-01-29T16:53:59.857Z,100827.75
2023-01-29T16:57:03.396Z,100835.50
2023-01-29T17:00:09.156Z,100835.78
2023-01-29T17:03:12.300Z,100828.78
2023-01-29T17:06:25.751Z,100832.53
2023-01-29T17:09:34.579Z,100827.31
2023-01-29T17:12:38.998Z,100830.97
2023-01-29T17:15:44.729Z,100829.97
2023-01-29T17:18:47.654Z,100833.03
2023-01-29T17:21:50.473Z,100829.75
2023-01-29T17:24:53.668Z,100818.88
2023-01-29T17:27:56.536Z,100820.13
2023-01-29T17:31:06.375Z,100814.44
2023-01-29T17:34:12.770Z,100814.69
2023-01-29T17:37:16.656Z,100806.16
2023-01-29T17:40:34.514Z,100801.50
2023-01-29T17:43:37.746Z,100796.03
2023-01-29T17:46:40.295Z,100789.25
2023-01-29T17:49:43.595Z,100790.09
2023-01-29T17:52:46.856Z,100791.72
2023-01-29T17:55:50.554Z,100788.25
2023-01-29T17:58:53.611Z,100781.56
2023-01-29T18:01:57.090Z,100777.09
2023-01-29T18:05:00.490Z,100772.03
2023-01-29T18:08:04.594Z,100766.75
2023-01-29T18:11:11.533Z,100776.53
2023-01-29T18:14:14.766Z,100780.19
2023-01-29T18:17:22.322Z,100780.63
2023-01-29T18:20:28.125Z,100771.00
2023-01-29T18:23:32.332Z,100777.62
2023-01-29T18:26:36.116Z,100769.25
2023-01-29T18:29:39.014Z,100767.41
2023-01-29T18:32:41.850Z,100768.81
2023-01-29T18:35:45.291Z,100763.00
2023-01-29T18:38:48.108Z,100764.72
2023-01-29T18:41:51.472Z,100750.00
2023-01-29T18:44:54.179Z,100766.13
2023-01-29T18:47:57.717Z,100763.66
2023-01-29T18:51:00.831Z,100764.44
2023-01-29T18:54:04.203Z,100767.66
2023-01-29T18:57:14.092Z,100775.41
2023-01-29T19:00:29.852Z,100766.06
2023-01-29T19:03:32.810Z,100767.53
2023-01-29T19:06:37.193Z,100765.84
2023-01-29T19:09:42.115Z,100767.56
2023-01-29T19:12:47.727Z,100762.03
2023-01-29T19:15:50.504Z,100765.13
2023-01-29T19:18:56.068Z,100762.81
2023-01-29T19:21:59.576Z,100757.97
2023-01-29T19:25:02.662Z,100761.75
2023-01-29T19:28:07.276Z,100762.28
2023-01-29T19:31:10.172Z,100758.81
2023-01-29T19:34:13.283Z,100761.12
2023-01-29T19:37:16.864Z,100761.72
2023-01-29T19:40:19.721Z,100761.59
2023-01-29T19:43:22.660Z,100757.00
2023-01-29T19:46:25.165Z,100744.09
2023-01-29T19:49:28.392Z,100744.88
2023-01-29T19:52:51.067Z,100742.53
2023-01-29T19:56:03.156Z,100748.41
2023-01-29T19:59:09.296Z,100754.00
2023-01-29T20:02:12.511Z,100754.72
2023-01-29T20:05:18.413Z,100750.50
2023-01-29T20:08:22.348Z,100751.53
2023-01-29T20:11:25.436Z,100747.47
2023-01-29T20:14:28.216Z,100759.53
2023-01-29T20:17:31.333Z,100751.00
2023-01-29T20:20:33.913Z,100743.84
2023-01-29T20:23:38.733Z,100736.38
2023-01-29T20:26:41.885Z,100739.53
2023-01-29T20:29:46.559Z,100725.25
2023-01-29T20:32:49.083Z,100718.09
2023-01-29T20:35:59.607Z,100721.72
2023-01-29T20:39:02.261Z,100724.94
2023-01-29T20:42:05.494Z,100729.91
2023-01-29T20:45:12.307Z,100727.63
2023-01-29T20:48:15.476Z,100729.13
2023-01-29T20:51:18.647Z,100726.97
2023-01-29T20:54:21.700Z,100733.47
2023-01-29T20:57:24.933Z,100731.66
2023-01-29T21:00:28.012Z,100730.19
2023-01-29T21:03:30.906Z,100733.69
2023-01-29T21:06:34.068Z,100736.97
2023-01-29T21:09:36.863Z,100724.75
2023-01-29T21:12:39.656Z,100728.47
2023-01-29T21:15:42.846Z,100734.09
2023-01-29T21:18:46.195Z,100744.03
2023-01-29T21:21:48.736Z,100744.16
2023-01-29T21:24:51.611Z,100738.78
2023-01-29T21:27:54.392Z,100759.00
2023-01-29T21:31:04.223Z,100762.75
2023-01-29T21:34:07.941Z,100762.69
2023-01-29T21:37:10.878Z,100760.78
2023-01-29T21:40:13.528Z,100758.84
2023-01-29T21:43:16.856Z,100758.63
2023-01-29T21:46:20.800Z,100745.66
2023-01-29T21:49:23.892Z,100754.28
2023-01-29T21:52:26.470Z,100749.06
2023-01-29T21:55:29.396Z,100750.56
2023-01-29T21:58:32.236Z,100745.00
2023-01-29T22:01:37.549Z,100737.97
2023-01-29T22:04:42.451Z,100734.63
2023-01-29T22:07:44.971Z,100726.66
2023-01-29T22:10:48.233Z,100723.88
2023-01-29T22:13:50.871Z,100725.13
2023-01-29T22:16:53.682Z,100724.09
2023-01-29T22:19:56.309Z,100717.31
2023-01-29T22:23:00.625Z,100704.97
2023-01-29T22:26:04.498Z,100715.72
2023-01-29T22:29:07.331Z,100703.41
2023-01-29T22:32:10.530Z,100692.06
2023-01-29T22:35:13.494Z,100690.94
2023-01-29T22:38:16.019Z,100677.84
2023-01-29T22:41:18.864Z,100684.69
2023-01-29T22:44:21.692Z,100681.84
2023-01-29T22:47:24.506Z,100677.72
2023-01-29T22:50:27.073Z,100674.22
2023-01-29T22:53:29.848Z,100675.00
2023-01-29T22:56:32.325Z,100675.78
2023-01-29T22:59:35.223Z,100671.13
2023-01-29T23:02:38.019Z,100673.44
2023-01-29T23:05:40.890Z,100667.25
2023-01-29T23:08:44.332Z,100674.81
2023-01-29T23:11:47.430Z,100662.69
2023-01-29T23:14:49.956Z,100670.28
2023-01-29T23:17:52.800Z,100670.38
2023-01-29T23:20:58.378Z,100671.25
2023-01-29T23:24:01.499Z,100661.78
2023-01-29T23:27:16.057Z,100660.09
2023-01-29T23:30:19.385Z,100657.06
2023-01-29T23:33:22.469Z,100644.47
2023-01-29T23:36:25.416Z,100648.34
2023-01-29T23:39:27.906Z,100633.63
2023-01-29T23:42:30.825Z,100646.25
2023-01-29T23:45:33.530Z,100639.28
2023-01-29T23:48:36.633Z,100643.34
2023-01-29T23:51:39.190Z,100641.56
2023-01-29T23:54:42.253Z,100638.19
2023-01-29T23:57:44.753Z,100637.22
